sensor_id;sensor_type;location;lat;lon;timestamp;temperature;humidity
50067;DHT22;35952;52.524;13.340;2023-09-19T00:02:01;19.50;99.90
50067;DHT22;35952;52.524;13.340;2023-09-19T00:04:27;19.50;99.90
50067;DHT22;35952;52.524;13.340;2023-09-19T00:06:54;19.30;99.90
50067;DHT22;35952;52.524;13.340;2023-09-19T00:09:20;19.30;99.90
50067;DHT22;35952;52.524;13.340;2023-09-19T00:11:45;19.40;99.90
50067;DHT22;35952;52.524;13.340;2023-09-19T00:14:12;19.40;99.90
50067;DHT22;35952;52.524;13.340;2023-09-19T00:16:39;19.30;99.90
50067;DHT22;35952;52.524;13.340;2023-09-19T00:19:06;19.20;99.90
50067;DHT22;35952;52.524;13.340;2023-09-19T00:21:32;19.20;99.90
50067;DHT22;35952;52.524;13.340;2023-09-19T00:23:58;19.30;99.90
50067;DHT22;35952;52.524;13.340;2023-09-19T00:26:23;19.30;99.90
50067;DHT22;35952;52.524;13.340;2023-09-19T00:28:52;19.40;99.90
50067;DHT22;35952;52.524;13.340;2023-09-19T00:31:18;19.40;99.90
50067;DHT22;35952;52.524;13.340;2023-09-19T00:33:43;19.30;99.90
50067;DHT22;35952;52.524;13.340;2023-09-19T00:36:09;19.20;99.90
50067;DHT22;35952;52.524;13.340;2023-09-19T00:38:34;19.20;99.90
50067;DHT22;35952;52.524;13.340;2023-09-19T00:41:00;19.20;99.90
50067;DHT22;35952;52.524;13.340;2023-09-19T00:43:25;19.30;99.90
50067;DHT22;35952;52.524;13.340;2023-09-19T00:45:54;19.10;99.90
50067;DHT22;35952;52.524;13.340;2023-09-19T00:48:21;19.20;99.90
50067;DHT22;35952;52.524;13.340;2023-09-19T00:50:47;19.20;99.90
50067;DHT22;35952;52.524;13.340;2023-09-19T00:53:17;19.10;99.90
50067;DHT22;35952;52.524;13.340;2023-09-19T00:55:45;19.20;99.90
50067;DHT22;35952;52.524;13.340;2023-09-19T00:58:11;19.30;99.90
50067;DHT22;35952;52.524;13.340;2023-09-19T01:00:37;19.30;99.90
50067;DHT22;35952;52.524;13.340;2023-09-19T01:03:03;19.20;99.90
50067;DHT22;35952;52.524;13.340;2023-09-19T01:05:31;19.20;99.90
50067;DHT22;35952;52.524;13.340;2023-09-19T01:07:58;19.10;99.90
50067;DHT22;35952;52.524;13.340;2023-09-19T01:10:24;19.10;99.90
50067;DHT22;35952;52.524;13.340;2023-09-19T01:13:13;19.10;99.90
50067;DHT22;35952;52.524;13.340;2023-09-19T01:15:55;19.20;99.90
50067;DHT22;35952;52.524;13.340;2023-09-19T01:18:48;19.00;99.90
50067;DHT22;35952;52.524;13.340;2023-09-19T01:30:27;19.10;99.90
50067;DHT22;35952;52.524;13.340;2023-09-19T01:32:57;19.00;99.90
50067;DHT22;35952;52.524;13.340;2023-09-19T01:35:24;19.10;99.90
50067;DHT22;35952;52.524;13.340;2023-09-19T01:37:50;19.10;99.90
50067;DHT22;35952;52.524;13.340;2023-09-19T01:40:18;19.20;99.90
50067;DHT22;35952;52.524;13.340;2023-09-19T01:42:59;19.00;99.90
50067;DHT22;35952;52.524;13.340;2023-09-19T01:48:34;19.00;99.90
50067;DHT22;35952;52.524;13.340;2023-09-19T01:51:06;19.00;99.90
50067;DHT22;35952;52.524;13.340;2023-09-19T01:53:55;18.90;99.90
50067;DHT22;35952;52.524;13.340;2023-09-19T01:56:42;19.00;99.90
50067;DHT22;35952;52.524;13.340;2023-09-19T01:59:13;19.00;99.90
50067;DHT22;35952;52.524;13.340;2023-09-19T02:01:42;19.00;99.90
50067;DHT22;35952;52.524;13.340;2023-09-19T02:04:10;19.00;99.90
50067;DHT22;35952;52.524;13.340;2023-09-19T02:06:40;19.00;99.90
50067;DHT22;35952;52.524;13.340;2023-09-19T02:09:05;19.00;99.90
50067;DHT22;35952;52.524;13.340;2023-09-19T02:11:31;19.00;99.90
50067;DHT22;35952;52.524;13.340;2023-09-19T02:13:56;19.00;99.90
50067;DHT22;35952;52.524;13.340;2023-09-19T02:16:22;18.90;99.90
50067;DHT22;35952;52.524;13.340;2023-09-19T02:18:48;18.80;99.90
50067;DHT22;35952;52.524;13.340;2023-09-19T02:21:15;18.90;99.90
50067;DHT22;35952;52.524;13.340;2023-09-19T02:23:41;18.80;99.90
50067;DHT22;35952;52.524;13.340;2023-09-19T02:26:06;18.80;99.90
50067;DHT22;35952;52.524;13.340;2023-09-19T02:28:32;18.90;99.90
50067;DHT22;35952;52.524;13.340;2023-09-19T02:31:00;18.80;99.90
50067;DHT22;35952;52.524;13.340;2023-09-19T02:33:25;18.80;99.90
50067;DHT22;35952;52.524;13.340;2023-09-19T02:35:58;18.80;99.90
50067;DHT22;35952;52.524;13.340;2023-09-19T02:38:27;18.80;99.90
50067;DHT22;35952;52.524;13.340;2023-09-19T02:40:54;18.70;99.90
50067;DHT22;35952;52.524;13.340;2023-09-19T02:43:23;18.80;99.90
50067;DHT22;35952;52.524;13.340;2023-09-19T02:45:49;18.70;99.90
50067;DHT22;35952;52.524;13.340;2023-09-19T02:48:19;18.70;99.90
50067;DHT22;35952;52.524;13.340;2023-09-19T02:50:45;18.70;99.90
50067;DHT22;35952;52.524;13.340;2023-09-19T02:53:11;18.70;99.90
50067;DHT22;35952;52.524;13.340;2023-09-19T02:55:38;18.80;99.90
50067;DHT22;35952;52.524;13.340;2023-09-19T02:58:06;18.80;99.90
50067;DHT22;35952;52.524;13.340;2023-09-19T03:00:40;18.80;99.90
50067;DHT22;35952;52.524;13.340;2023-09-19T03:03:07;18.70;99.90
50067;DHT22;35952;52.524;13.340;2023-09-19T03:05:34;18.70;99.90
50067;DHT22;35952;52.524;13.340;2023-09-19T03:08:00;18.70;99.90
50067;DHT22;35952;52.524;13.340;2023-09-19T03:10:28;18.80;99.90
50067;DHT22;35952;52.524;13.340;2023-09-19T03:12:54;18.90;99.90
50067;DHT22;35952;52.524;13.340;2023-09-19T03:15:20;18.80;99.90
50067;DHT22;35952;52.524;13.340;2023-09-19T03:17:48;18.80;99.90
50067;DHT22;35952;52.524;13.340;2023-09-19T03:20:14;18.80;99.90
50067;DHT22;35952;52.524;13.340;2023-09-19T03:22:43;18.90;99.90
50067;DHT22;35952;52.524;13.340;2023-09-19T03:25:08;18.90;99.90
50067;DHT22;35952;52.524;13.340;2023-09-19T03:27:35;18.80;99.90
50067;DHT22;35952;52.524;13.340;2023-09-19T03:30:00;18.90;99.90
50067;DHT22;35952;52.524;13.340;2023-09-19T03:32:26;18.90;99.90
50067;DHT22;35952;52.524;13.340;2023-09-19T03:34:51;18.90;99.90
50067;DHT22;35952;52.524;13.340;2023-09-19T03:37:17;18.80;99.90
50067;DHT22;35952;52.524;13.340;2023-09-19T03:39:43;18.90;99.90
50067;DHT22;35952;52.524;13.340;2023-09-19T03:42:08;18.80;99.90
50067;DHT22;35952;52.524;13.340;2023-09-19T03:44:35;18.80;99.90
50067;DHT22;35952;52.524;13.340;2023-09-19T03:47:00;18.80;99.90
50067;DHT22;35952;52.524;13.340;2023-09-19T03:49:26;18.90;99.90
50067;DHT22;35952;52.524;13.340;2023-09-19T03:51:51;18.80;99.90
50067;DHT22;35952;52.524;13.340;2023-09-19T03:54:17;18.80;99.90
50067;DHT22;35952;52.524;13.340;2023-09-19T03:56:44;18.80;99.90
50067;DHT22;35952;52.524;13.340;2023-09-19T03:59:11;18.80;99.90
50067;DHT22;35952;52.524;13.340;2023-09-19T04:01:37;18.80;99.90
50067;DHT22;35952;52.524;13.340;2023-09-19T04:04:03;18.70;99.90
50067;DHT22;35952;52.524;13.340;2023-09-19T04:06:35;18.70;99.90
50067;DHT22;35952;52.524;13.340;2023-09-19T04:09:02;18.70;99.90
50067;DHT22;35952;52.524;13.340;2023-09-19T04:11:29;18.70;99.90
50067;DHT22;35952;52.524;13.340;2023-09-19T04:13:54;18.70;99.90
50067;DHT22;35952;52.524;13.340;2023-09-19T04:16:20;18.70;99.90
50067;DHT22;35952;52.524;13.340;2023-09-19T04:18:45;18.70;99.90
50067;DHT22;35952;52.524;13.340;2023-09-19T04:21:11;18.60;99.90
50067;DHT22;35952;52.524;13.340;2023-09-19T04:23:37;18.50;99.90
50067;DHT22;35952;52.524;13.340;2023-09-19T04:26:02;18.50;99.90
50067;DHT22;35952;52.524;13.340;2023-09-19T04:28:30;18.50;99.90
50067;DHT22;35952;52.524;13.340;2023-09-19T04:30:56;18.50;99.90
50067;DHT22;35952;52.524;13.340;2023-09-19T04:33:21;18.40;99.90
50067;DHT22;35952;52.524;13.340;2023-09-19T04:35:49;18.40;99.90
50067;DHT22;35952;52.524;13.340;2023-09-19T04:38:16;18.40;99.90
50067;DHT22;35952;52.524;13.340;2023-09-19T04:40:42;18.40;99.90
50067;DHT22;35952;52.524;13.340;2023-09-19T04:43:07;18.30;99.90
50067;DHT22;35952;52.524;13.340;2023-09-19T04:45:33;18.30;99.90
50067;DHT22;35952;52.524;13.340;2023-09-19T04:47:58;18.40;99.90
50067;DHT22;35952;52.524;13.340;2023-09-19T04:50:23;18.40;99.90
50067;DHT22;35952;52.524;13.340;2023-09-19T04:52:53;18.30;99.90
50067;DHT22;35952;52.524;13.340;2023-09-19T04:55:19;18.30;99.90
50067;DHT22;35952;52.524;13.340;2023-09-19T04:57:49;18.30;99.90
50067;DHT22;35952;52.524;13.340;2023-09-19T05:00:19;18.30;99.90
50067;DHT22;35952;52.524;13.340;2023-09-19T05:02:52;18.30;99.90
50067;DHT22;35952;52.524;13.340;2023-09-19T05:05:19;18.30;99.90
50067;DHT22;35952;52.524;13.340;2023-09-19T05:07:46;18.30;99.90
50067;DHT22;35952;52.524;13.340;2023-09-19T05:10:12;18.20;99.90
50067;DHT22;35952;52.524;13.340;2023-09-19T05:12:38;18.20;99.90
50067;DHT22;35952;52.524;13.340;2023-09-19T05:15:05;18.20;99.90
50067;DHT22;35952;52.524;13.340;2023-09-19T05:17:32;18.20;99.90
50067;DHT22;35952;52.524;13.340;2023-09-19T05:19:58;18.20;99.90
50067;DHT22;35952;52.524;13.340;2023-09-19T05:22:26;18.20;99.90
50067;DHT22;35952;52.524;13.340;2023-09-19T05:24:52;18.30;99.90
50067;DHT22;35952;52.524;13.340;2023-09-19T05:27:18;18.20;99.90
50067;DHT22;35952;52.524;13.340;2023-09-19T05:29:44;18.20;99.90
50067;DHT22;35952;52.524;13.340;2023-09-19T05:32:10;18.30;99.90
50067;DHT22;35952;52.524;13.340;2023-09-19T05:34:36;18.30;99.90
50067;DHT22;35952;52.524;13.340;2023-09-19T05:37:02;18.30;99.90
50067;DHT22;35952;52.524;13.340;2023-09-19T05:39:28;18.30;99.90
50067;DHT22;35952;52.524;13.340;2023-09-19T05:41:53;18.30;99.90
50067;DHT22;35952;52.524;13.340;2023-09-19T05:44:18;18.20;99.90
50067;DHT22;35952;52.524;13.340;2023-09-19T05:46:44;18.20;99.90
50067;DHT22;35952;52.524;13.340;2023-09-19T05:49:11;18.20;99.90
50067;DHT22;35952;52.524;13.340;2023-09-19T05:51:37;18.30;99.90
50067;DHT22;35952;52.524;13.340;2023-09-19T05:54:02;18.20;99.90
50067;DHT22;35952;52.524;13.340;2023-09-19T05:56:30;18.30;99.90
50067;DHT22;35952;52.524;13.340;2023-09-19T05:58:55;18.30;99.90
50067;DHT22;35952;52.524;13.340;2023-09-19T06:01:21;18.30;99.90
50067;DHT22;35952;52.524;13.340;2023-09-19T06:03:47;18.30;99.90
50067;DHT22;35952;52.524;13.340;2023-09-19T06:06:13;18.30;99.90
50067;DHT22;35952;52.524;13.340;2023-09-19T06:08:39;18.40;99.90
50067;DHT22;35952;52.524;13.340;2023-09-19T06:11:04;18.40;99.90
50067;DHT22;35952;52.524;13.340;2023-09-19T06:13:34;18.40;99.90
50067;DHT22;35952;52.524;13.340;2023-09-19T06:16:00;18.40;99.90
50067;DHT22;35952;52.524;13.340;2023-09-19T06:18:33;18.40;99.90
50067;DHT22;35952;52.524;13.340;2023-09-19T06:21:01;18.50;99.90
50067;DHT22;35952;52.524;13.340;2023-09-19T06:23:33;18.50;99.90
50067;DHT22;35952;52.524;13.340;2023-09-19T06:25:59;18.50;99.90
50067;DHT22;35952;52.524;13.340;2023-09-19T06:28:25;18.50;99.90
50067;DHT22;35952;52.524;13.340;2023-09-19T06:30:53;18.60;99.90
50067;DHT22;35952;52.524;13.340;2023-09-19T06:33:19;18.70;99.90
50067;DHT22;35952;52.524;13.340;2023-09-19T06:35:47;18.70;99.90
50067;DHT22;35952;52.524;13.340;2023-09-19T06:38:13;18.70;99.90
50067;DHT22;35952;52.524;13.340;2023-09-19T06:40:40;18.70;99.90
50067;DHT22;35952;52.524;13.340;2023-09-19T06:43:12;18.60;99.90
50067;DHT22;35952;52.524;13.340;2023-09-19T06:45:37;18.90;99.90
50067;DHT22;35952;52.524;13.340;2023-09-19T06:48:03;19.00;99.90
50067;DHT22;35952;52.524;13.340;2023-09-19T06:50:30;19.00;99.90
50067;DHT22;35952;52.524;13.340;2023-09-19T06:52:58;19.10;99.90
50067;DHT22;35952;52.524;13.340;2023-09-19T06:55:25;19.30;99.90
50067;DHT22;35952;52.524;13.340;2023-09-19T06:57:53;19.40;99.90
50067;DHT22;35952;52.524;13.340;2023-09-19T07:00:22;19.60;99.90
50067;DHT22;35952;52.524;13.340;2023-09-19T07:02:59;19.70;99.90
50067;DHT22;35952;52.524;13.340;2023-09-19T07:05:27;20.00;99.90
50067;DHT22;35952;52.524;13.340;2023-09-19T07:07:53;20.00;99.90
50067;DHT22;35952;52.524;13.340;2023-09-19T07:10:20;20.20;99.90
50067;DHT22;35952;52.524;13.340;2023-09-19T07:12:59;20.20;99.90
50067;DHT22;35952;52.524;13.340;2023-09-19T07:15:31;19.70;99.90
50067;DHT22;35952;52.524;13.340;2023-09-19T07:17:59;19.40;99.90
50067;DHT22;35952;52.524;13.340;2023-09-19T07:20:26;19.00;99.90
50067;DHT22;35952;52.524;13.340;2023-09-19T07:22:52;18.90;99.90
50067;DHT22;35952;52.524;13.340;2023-09-19T07:25:20;18.90;99.90
50067;DHT22;35952;52.524;13.340;2023-09-19T07:27:45;19.00;99.90
50067;DHT22;35952;52.524;13.340;2023-09-19T07:30:11;19.00;99.90
50067;DHT22;35952;52.524;13.340;2023-09-19T07:32:38;18.90;99.90
50067;DHT22;35952;52.524;13.340;2023-09-19T07:35:04;18.80;99.90
50067;DHT22;35952;52.524;13.340;2023-09-19T07:37:31;18.40;99.90
50067;DHT22;35952;52.524;13.340;2023-09-19T07:40:04;18.60;99.90
50067;DHT22;35952;52.524;13.340;2023-09-19T07:42:37;18.80;99.90
50067;DHT22;35952;52.524;13.340;2023-09-19T07:45:05;19.00;99.90
50067;DHT22;35952;52.524;13.340;2023-09-19T07:47:30;19.20;99.90
50067;DHT22;35952;52.524;13.340;2023-09-19T07:49:58;19.40;99.90
50067;DHT22;35952;52.524;13.340;2023-09-19T07:52:24;19.50;99.90
50067;DHT22;35952;52.524;13.340;2023-09-19T07:54:50;20.40;99.90
50067;DHT22;35952;52.524;13.340;2023-09-19T07:57:15;21.40;99.90
50067;DHT22;35952;52.524;13.340;2023-09-19T07:59:41;21.80;99.90
50067;DHT22;35952;52.524;13.340;2023-09-19T08:02:08;22.40;99.90
50067;DHT22;35952;52.524;13.340;2023-09-19T08:04:35;22.10;99.90
50067;DHT22;35952;52.524;13.340;2023-09-19T08:07:01;22.60;99.90
50067;DHT22;35952;52.524;13.340;2023-09-19T08:09:29;22.60;99.90
50067;DHT22;35952;52.524;13.340;2023-09-19T08:11:59;22.20;99.90
50067;DHT22;35952;52.524;13.340;2023-09-19T08:14:29;22.70;99.90
50067;DHT22;35952;52.524;13.340;2023-09-19T08:16:58;23.50;99.90
50067;DHT22;35952;52.524;13.340;2023-09-19T08:19:24;23.20;99.90
50067;DHT22;35952;52.524;13.340;2023-09-19T08:21:56;23.00;99.90
50067;DHT22;35952;52.524;13.340;2023-09-19T08:24:24;22.40;99.90
50067;DHT22;35952;52.524;13.340;2023-09-19T08:26:52;22.20;99.90
50067;DHT22;35952;52.524;13.340;2023-09-19T08:29:20;21.90;99.90
50067;DHT22;35952;52.524;13.340;2023-09-19T08:31:45;21.70;99.90
50067;DHT22;35952;52.524;13.340;2023-09-19T08:34:13;21.50;99.90
50067;DHT22;35952;52.524;13.340;2023-09-19T08:36:38;21.20;99.90
50067;DHT22;35952;52.524;13.340;2023-09-19T08:39:04;21.10;99.90
50067;DHT22;35952;52.524;13.340;2023-09-19T08:41:30;20.80;99.90
50067;DHT22;35952;52.524;13.340;2023-09-19T08:43:59;20.70;99.90
50067;DHT22;35952;52.524;13.340;2023-09-19T08:46:30;20.60;99.90
50067;DHT22;35952;52.524;13.340;2023-09-19T08:49:12;20.60;99.90
50067;DHT22;35952;52.524;13.340;2023-09-19T08:51:43;20.50;99.90
50067;DHT22;35952;52.524;13.340;2023-09-19T08:54:19;20.40;99.90
50067;DHT22;35952;52.524;13.340;2023-09-19T08:56:48;20.30;99.90
50067;DHT22;35952;52.524;13.340;2023-09-19T08:59:15;20.40;99.90
50067;DHT22;35952;52.524;13.340;2023-09-19T09:01:41;20.40;99.90
50067;DHT22;35952;52.524;13.340;2023-09-19T09:04:10;20.30;99.90
50067;DHT22;35952;52.524;13.340;2023-09-19T09:06:38;20.20;99.90
50067;DHT22;35952;52.524;13.340;2023-09-19T09:09:05;20.40;99.90
50067;DHT22;35952;52.524;13.340;2023-09-19T09:11:32;20.70;99.90
50067;DHT22;35952;52.524;13.340;2023-09-19T09:13:58;20.80;99.90
50067;DHT22;35952;52.524;13.340;2023-09-19T09:16:24;20.80;99.90
50067;DHT22;35952;52.524;13.340;2023-09-19T09:18:51;20.80;99.90
50067;DHT22;35952;52.524;13.340;2023-09-19T09:21:20;20.80;99.90
50067;DHT22;35952;52.524;13.340;2023-09-19T09:23:48;20.90;99.90
50067;DHT22;35952;52.524;13.340;2023-09-19T09:26:13;21.00;99.90
50067;DHT22;35952;52.524;13.340;2023-09-19T09:28:46;21.20;99.90
50067;DHT22;35952;52.524;13.340;2023-09-19T09:31:23;21.30;99.90
50067;DHT22;35952;52.524;13.340;2023-09-19T09:33:55;21.50;99.90
50067;DHT22;35952;52.524;13.340;2023-09-19T09:36:34;21.60;99.90
50067;DHT22;35952;52.524;13.340;2023-09-19T09:39:02;21.50;99.90
50067;DHT22;35952;52.524;13.340;2023-09-19T09:41:42;21.50;99.90
50067;DHT22;35952;52.524;13.340;2023-09-19T09:44:16;21.70;99.90
50067;DHT22;35952;52.524;13.340;2023-09-19T09:46:44;21.90;99.90
50067;DHT22;35952;52.524;13.340;2023-09-19T09:49:22;22.00;99.90
50067;DHT22;35952;52.524;13.340;2023-09-19T09:54:26;22.30;99.40
50067;DHT22;35952;52.524;13.340;2023-09-19T09:56:59;22.40;98.00
50067;DHT22;35952;52.524;13.340;2023-09-19T09:59:50;22.40;97.70
50067;DHT22;35952;52.524;13.340;2023-09-19T10:02:36;22.40;97.30
50067;DHT22;35952;52.524;13.340;2023-09-19T10:05:32;22.50;96.70
50067;DHT22;35952;52.524;13.340;2023-09-19T10:08:12;22.40;95.90
50067;DHT22;35952;52.524;13.340;2023-09-19T10:10:39;22.40;95.10
50067;DHT22;35952;52.524;13.340;2023-09-19T10:13:12;22.40;95.50
50067;DHT22;35952;52.524;13.340;2023-09-19T10:15:43;22.40;94.90
50067;DHT22;35952;52.524;13.340;2023-09-19T10:18:20;22.40;94.50
50067;DHT22;35952;52.524;13.340;2023-09-19T10:20:46;22.50;94.20
50067;DHT22;35952;52.524;13.340;2023-09-19T10:23:14;22.60;93.40
50067;DHT22;35952;52.524;13.340;2023-09-19T10:25:46;22.80;93.40
50067;DHT22;35952;52.524;13.340;2023-09-19T10:28:14;23.10;92.50
50067;DHT22;35952;52.524;13.340;2023-09-19T10:30:47;22.90;92.70
50067;DHT22;35952;52.524;13.340;2023-09-19T10:33:18;22.60;92.70
50067;DHT22;35952;52.524;13.340;2023-09-19T10:35:49;22.40;92.90
50067;DHT22;35952;52.524;13.340;2023-09-19T10:38:23;22.60;93.70
50067;DHT22;35952;52.524;13.340;2023-09-19T10:40:51;22.70;92.90
50067;DHT22;35952;52.524;13.340;2023-09-19T10:43:19;22.90;92.50
50067;DHT22;35952;52.524;13.340;2023-09-19T10:45:46;23.10;92.30
50067;DHT22;35952;52.524;13.340;2023-09-19T10:48:15;23.20;92.50
50067;DHT22;35952;52.524;13.340;2023-09-19T10:51:12;23.60;90.60
50067;DHT22;35952;52.524;13.340;2023-09-19T10:53:58;23.60;86.60
50067;DHT22;35952;52.524;13.340;2023-09-19T10:56:34;23.80;85.00
50067;DHT22;35952;52.524;13.340;2023-09-19T10:59:13;23.80;84.60
50067;DHT22;35952;52.524;13.340;2023-09-19T11:01:43;23.90;82.40
50067;DHT22;35952;52.524;13.340;2023-09-19T11:04:33;23.60;82.30
50067;DHT22;35952;52.524;13.340;2023-09-19T11:07:10;23.30;81.70
50067;DHT22;35952;52.524;13.340;2023-09-19T11:09:49;23.20;82.00
50067;DHT22;35952;52.524;13.340;2023-09-19T11:15:02;22.60;82.50
50067;DHT22;35952;52.524;13.340;2023-09-19T11:17:34;22.60;85.10
50067;DHT22;35952;52.524;13.340;2023-09-19T11:23:18;22.30;84.10
50067;DHT22;35952;52.524;13.340;2023-09-19T11:25:44;22.20;83.60
50067;DHT22;35952;52.524;13.340;2023-09-19T11:30:49;22.30;84.50
50067;DHT22;35952;52.524;13.340;2023-09-19T11:33:17;22.20;84.00
50067;DHT22;35952;52.524;13.340;2023-09-19T11:43:47;22.10;83.40
50067;DHT22;35952;52.524;13.340;2023-09-19T11:46:13;23.00;81.20
50067;DHT22;35952;52.524;13.340;2023-09-19T11:48:42;23.60;78.60
50067;DHT22;35952;52.524;13.340;2023-09-19T11:51:13;24.10;76.10
50067;DHT22;35952;52.524;13.340;2023-09-19T11:53:52;24.20;76.70
50067;DHT22;35952;52.524;13.340;2023-09-19T11:56:19;24.00;76.30
50067;DHT22;35952;52.524;13.340;2023-09-19T11:58:46;23.80;77.40
50067;DHT22;35952;52.524;13.340;2023-09-19T12:01:15;23.70;76.70
50067;DHT22;35952;52.524;13.340;2023-09-19T12:03:47;23.60;78.00
50067;DHT22;35952;52.524;13.340;2023-09-19T12:06:18;23.80;78.10
50067;DHT22;35952;52.524;13.340;2023-09-19T12:08:44;23.60;76.00
50067;DHT22;35952;52.524;13.340;2023-09-19T12:11:16;23.40;76.20
50067;DHT22;35952;52.524;13.340;2023-09-19T12:13:43;23.10;75.90
50067;DHT22;35952;52.524;13.340;2023-09-19T12:16:17;23.00;76.70
50067;DHT22;35952;52.524;13.340;2023-09-19T12:18:44;23.00;76.80
50067;DHT22;35952;52.524;13.340;2023-09-19T12:21:22;22.90;76.20
50067;DHT22;35952;52.524;13.340;2023-09-19T12:26:37;22.60;75.40
50067;DHT22;35952;52.524;13.340;2023-09-19T12:29:03;22.60;74.50
50067;DHT22;35952;52.524;13.340;2023-09-19T12:31:31;22.60;75.70
50067;DHT22;35952;52.524;13.340;2023-09-19T12:34:01;22.70;75.40
50067;DHT22;35952;52.524;13.340;2023-09-19T12:36:27;22.70;74.40
50067;DHT22;35952;52.524;13.340;2023-09-19T12:38:56;22.70;74.40
50067;DHT22;35952;52.524;13.340;2023-09-19T12:41:24;22.90;74.20
50067;DHT22;35952;52.524;13.340;2023-09-19T12:43:52;22.80;73.70
50067;DHT22;35952;52.524;13.340;2023-09-19T12:46:20;22.90;75.50
50067;DHT22;35952;52.524;13.340;2023-09-19T12:49:19;23.00;72.30
50067;DHT22;35952;52.524;13.340;2023-09-19T12:51:48;23.00;73.40
50067;DHT22;35952;52.524;13.340;2023-09-19T12:54:14;23.00;75.00
50067;DHT22;35952;52.524;13.340;2023-09-19T12:56:44;23.00;75.40
50067;DHT22;35952;52.524;13.340;2023-09-19T12:59:13;22.90;73.30
50067;DHT22;35952;52.524;13.340;2023-09-19T13:01:42;22.70;75.20
50067;DHT22;35952;52.524;13.340;2023-09-19T13:06:38;22.60;76.10
50067;DHT22;35952;52.524;13.340;2023-09-19T13:09:09;22.40;75.30
50067;DHT22;35952;52.524;13.340;2023-09-19T13:11:37;22.30;74.70
50067;DHT22;35952;52.524;13.340;2023-09-19T13:14:26;22.10;75.50
50067;DHT22;35952;52.524;13.340;2023-09-19T13:17:09;21.90;76.10
50067;DHT22;35952;52.524;13.340;2023-09-19T13:19:50;21.90;77.40
50067;DHT22;35952;52.524;13.340;2023-09-19T13:25:08;22.10;75.00
50067;DHT22;35952;52.524;13.340;2023-09-19T13:27:39;22.00;75.60
50067;DHT22;35952;52.524;13.340;2023-09-19T13:30:05;22.20;76.40
50067;DHT22;35952;52.524;13.340;2023-09-19T13:32:32;22.40;76.40
50067;DHT22;35952;52.524;13.340;2023-09-19T13:34:59;22.50;76.70
50067;DHT22;35952;52.524;13.340;2023-09-19T13:37:24;22.40;76.60
50067;DHT22;35952;52.524;13.340;2023-09-19T13:39:52;22.40;77.10
50067;DHT22;35952;52.524;13.340;2023-09-19T13:42:17;22.30;76.00
50067;DHT22;35952;52.524;13.340;2023-09-19T13:44:44;22.30;77.30
50067;DHT22;35952;52.524;13.340;2023-09-19T13:47:09;22.40;76.30
50067;DHT22;35952;52.524;13.340;2023-09-19T13:49:36;22.30;75.80
50067;DHT22;35952;52.524;13.340;2023-09-19T13:52:02;22.20;75.80
50067;DHT22;35952;52.524;13.340;2023-09-19T13:54:30;22.10;74.60
50067;DHT22;35952;52.524;13.340;2023-09-19T13:56:56;22.00;74.80
50067;DHT22;35952;52.524;13.340;2023-09-19T13:59:21;22.10;76.00
50067;DHT22;35952;52.524;13.340;2023-09-19T14:01:49;22.10;75.00
50067;DHT22;35952;52.524;13.340;2023-09-19T14:04:16;22.20;74.20
50067;DHT22;35952;52.524;13.340;2023-09-19T14:06:42;22.40;74.30
50067;DHT22;35952;52.524;13.340;2023-09-19T14:09:08;22.60;76.10
50067;DHT22;35952;52.524;13.340;2023-09-19T14:11:35;22.80;75.50
50067;DHT22;35952;52.524;13.340;2023-09-19T14:14:01;23.10;75.40
50067;DHT22;35952;52.524;13.340;2023-09-19T14:16:26;23.30;76.20
50067;DHT22;35952;52.524;13.340;2023-09-19T14:18:55;23.40;73.60
50067;DHT22;35952;52.524;13.340;2023-09-19T14:21:21;23.50;73.30
50067;DHT22;35952;52.524;13.340;2023-09-19T14:23:46;23.40;75.10
50067;DHT22;35952;52.524;13.340;2023-09-19T14:26:12;23.30;73.20
50067;DHT22;35952;52.524;13.340;2023-09-19T14:28:37;23.10;73.20
50067;DHT22;35952;52.524;13.340;2023-09-19T14:31:10;22.90;73.10
50067;DHT22;35952;52.524;13.340;2023-09-19T14:33:36;22.70;73.80
50067;DHT22;35952;52.524;13.340;2023-09-19T14:36:07;22.60;74.80
50067;DHT22;35952;52.524;13.340;2023-09-19T14:38:35;22.50;74.00
50067;DHT22;35952;52.524;13.340;2023-09-19T14:41:05;22.50;74.60
50067;DHT22;35952;52.524;13.340;2023-09-19T14:43:30;22.40;75.00
50067;DHT22;35952;52.524;13.340;2023-09-19T14:46:06;22.40;74.00
50067;DHT22;35952;52.524;13.340;2023-09-19T14:48:36;22.40;76.60
50067;DHT22;35952;52.524;13.340;2023-09-19T14:51:08;22.50;76.20
50067;DHT22;35952;52.524;13.340;2023-09-19T14:53:37;22.40;76.20
50067;DHT22;35952;52.524;13.340;2023-09-19T14:56:08;22.40;74.70
50067;DHT22;35952;52.524;13.340;2023-09-19T14:58:34;22.30;76.00
50067;DHT22;35952;52.524;13.340;2023-09-19T15:01:07;22.10;75.60
50067;DHT22;35952;52.524;13.340;2023-09-19T15:03:33;22.00;76.50
50067;DHT22;35952;52.524;13.340;2023-09-19T15:06:01;21.90;75.70
50067;DHT22;35952;52.524;13.340;2023-09-19T15:08:27;21.80;75.30
50067;DHT22;35952;52.524;13.340;2023-09-19T15:10:52;21.80;75.80
50067;DHT22;35952;52.524;13.340;2023-09-19T15:13:19;21.70;75.80
50067;DHT22;35952;52.524;13.340;2023-09-19T15:15:45;21.70;76.50
50067;DHT22;35952;52.524;13.340;2023-09-19T15:18:13;21.60;76.50
50067;DHT22;35952;52.524;13.340;2023-09-19T15:20:44;21.60;75.60
50067;DHT22;35952;52.524;13.340;2023-09-19T15:23:09;21.50;76.30
50067;DHT22;35952;52.524;13.340;2023-09-19T15:25:35;21.50;76.40
50067;DHT22;35952;52.524;13.340;2023-09-19T15:28:00;21.50;76.30
50067;DHT22;35952;52.524;13.340;2023-09-19T15:30:37;21.50;76.00
50067;DHT22;35952;52.524;13.340;2023-09-19T15:33:02;21.50;76.80
50067;DHT22;35952;52.524;13.340;2023-09-19T15:35:28;21.50;75.50
50067;DHT22;35952;52.524;13.340;2023-09-19T15:37:53;21.50;76.50
50067;DHT22;35952;52.524;13.340;2023-09-19T15:40:21;21.50;77.30
50067;DHT22;35952;52.524;13.340;2023-09-19T15:42:49;21.40;78.50
50067;DHT22;35952;52.524;13.340;2023-09-19T15:45:14;21.30;77.90
50067;DHT22;35952;52.524;13.340;2023-09-19T15:47:41;21.40;78.30
50067;DHT22;35952;52.524;13.340;2023-09-19T15:50:08;21.40;77.80
50067;DHT22;35952;52.524;13.340;2023-09-19T15:52:39;21.50;77.50
50067;DHT22;35952;52.524;13.340;2023-09-19T15:55:05;21.30;78.50
50067;DHT22;35952;52.524;13.340;2023-09-19T15:57:38;21.40;77.50
50067;DHT22;35952;52.524;13.340;2023-09-19T16:00:05;21.40;77.50
50067;DHT22;35952;52.524;13.340;2023-09-19T16:02:36;21.40;77.50
50067;DHT22;35952;52.524;13.340;2023-09-19T16:05:01;21.30;77.60